createdAt,value
2022-12-19T00:02:01.231Z,-0.53
2022-12-19T00:04:30.382Z,-0.51
2022-12-19T00:06:59.815Z,-0.50
2022-12-19T00:09:30.025Z,-0.46
2022-12-19T00:12:04.558Z,-0.34
2022-12-19T00:14:34.750Z,-0.30
2022-12-19T00:17:04.903Z,-0.29
2022-12-19T00:19:37.723Z,-0.24
2022-12-19T00:22:11.291Z,-0.16
2022-12-19T00:24:42.266Z,-0.09
2022-12-19T00:27:11.502Z,-0.19
2022-12-19T00:29:40.612Z,-0.08
2022-12-19T00:32:10.106Z,0.01
2022-12-19T00:34:49.769Z,0.01
2022-12-19T00:37:19.063Z,0.10
2022-12-19T00:39:49.369Z,0.16
2022-12-19T00:42:22.278Z,0.12
2022-12-19T00:44:57.404Z,0.09
2022-12-19T00:47:30.214Z,0.15
2022-12-19T00:49:59.998Z,0.11
2022-12-19T00:52:29.757Z,0.31
2022-12-19T00:55:02.168Z,0.29
2022-12-19T00:57:35.504Z,0.26
2022-12-19T01:00:06.892Z,0.37
2022-12-19T01:02:38.541Z,0.27
2022-12-19T01:05:12.361Z,0.33
2022-12-19T01:07:45.964Z,0.22
2022-12-19T01:10:27.989Z,0.31
2022-12-19T01:12:57.738Z,0.29
2022-12-19T01:15:29.894Z,0.26
2022-12-19T01:18:02.414Z,0.31
2022-12-19T01:20:31.170Z,0.41
2022-12-19T01:23:00.824Z,0.38
2022-12-19T01:25:31.476Z,0.42
2022-12-19T01:28:02.090Z,0.37
2022-12-19T01:30:36.558Z,0.36
2022-12-19T01:33:15.856Z,0.52
2022-12-19T01:35:46.778Z,0.36
2022-12-19T01:38:26.786Z,0.44
2022-12-19T01:40:59.308Z,0.59
2022-12-19T01:43:34.853Z,0.41
2022-12-19T01:46:06.921Z,0.60
2022-12-19T01:48:46.932Z,0.60
2022-12-19T01:51:21.516Z,0.63
2022-12-19T01:53:54.186Z,0.61
2022-12-19T01:56:30.813Z,0.63
2022-12-19T01:59:11.580Z,0.64
2022-12-19T02:02:03.774Z,0.62
2022-12-19T02:04:35.159Z,0.75
2022-12-19T02:07:14.894Z,0.81
2022-12-19T02:09:47.182Z,0.76
2022-12-19T02:12:27.399Z,0.88
2022-12-19T02:15:02.963Z,0.88
2022-12-19T02:17:53.155Z,0.97
2022-12-19T02:21:11.038Z,1.01
2022-12-19T02:24:37.591Z,1.08
2022-12-19T02:27:58.035Z,0.99
2022-12-19T02:31:11.875Z,1.08
2022-12-19T02:33:58.111Z,1.05
2022-12-19T02:36:38.810Z,1.12
2022-12-19T02:39:17.056Z,1.21
2022-12-19T02:41:52.653Z,1.23
2022-12-19T02:44:31.521Z,1.20
2022-12-19T02:47:05.383Z,1.22
2022-12-19T02:49:42.645Z,1.28
2022-12-19T02:52:15.442Z,1.23
2022-12-19T02:54:45.299Z,1.24
2022-12-19T02:57:28.103Z,1.42
2022-12-19T03:00:07.643Z,1.42
2022-12-19T03:02:54.953Z,1.46
2022-12-19T03:05:40.723Z,1.43
2022-12-19T03:08:22.337Z,1.50
2022-12-19T03:10:59.443Z,1.45
2022-12-19T03:13:33.681Z,1.49
2022-12-19T03:16:06.466Z,1.51
2022-12-19T03:18:42.014Z,1.44
2022-12-19T03:21:19.928Z,1.52
2022-12-19T03:23:52.775Z,1.34
2022-12-19T03:26:26.378Z,1.43
2022-12-19T03:29:04.873Z,1.46
2022-12-19T03:31:42.732Z,1.42
2022-12-19T03:34:24.288Z,1.40
2022-12-19T03:37:02.809Z,1.39
2022-12-19T03:39:35.494Z,1.20
2022-12-19T03:42:25.059Z,1.27
2022-12-19T03:44:58.685Z,1.30
2022-12-19T03:47:36.154Z,1.23
2022-12-19T03:50:08.584Z,1.33
2022-12-19T03:52:48.318Z,1.23
2022-12-19T03:55:25.671Z,1.24
2022-12-19T03:58:01.631Z,1.13
2022-12-19T04:00:36.372Z,1.26
2022-12-19T04:03:08.051Z,1.28
2022-12-19T04:05:41.792Z,1.15
2022-12-19T04:08:13.962Z,1.17
2022-12-19T04:10:52.952Z,1.21
2022-12-19T04:13:32.515Z,1.06
2022-12-19T04:16:19.180Z,1.20
2022-12-19T04:19:01.125Z,1.08
2022-12-19T04:21:41.731Z,1.20
2022-12-19T04:24:17.081Z,1.19
2022-12-19T04:26:50.630Z,1.21
2022-12-19T04:29:20.740Z,1.27
2022-12-19T04:31:51.025Z,1.23
2022-12-19T04:34:22.725Z,1.28
2022-12-19T04:36:53.370Z,1.15
2022-12-19T04:39:24.217Z,1.10
2022-12-19T04:41:53.691Z,1.11
2022-12-19T04:44:23.351Z,1.11
2022-12-19T04:46:53.863Z,1.22
2022-12-19T04:49:22.798Z,1.05
2022-12-19T04:51:54.508Z,1.01
2022-12-19T04:54:24.105Z,1.04
2022-12-19T04:56:54.918Z,1.05
2022-12-19T04:59:24.628Z,1.02
2022-12-19T05:02:01.855Z,1.00
2022-12-19T05:04:32.777Z,0.93
2022-12-19T05:07:04.212Z,0.92
2022-12-19T05:09:34.719Z,0.92
2022-12-19T05:12:03.486Z,0.92
2022-12-19T05:14:33.516Z,0.85
2022-12-19T05:17:02.325Z,0.80
2022-12-19T05:19:31.530Z,0.87
2022-12-19T05:22:08.285Z,0.85
2022-12-19T05:24:38.958Z,0.79
2022-12-19T05:27:11.382Z,0.72
2022-12-19T05:29:42.414Z,0.81
2022-12-19T05:32:18.929Z,0.89
2022-12-19T05:34:47.640Z,0.77
2022-12-19T05:37:17.753Z,0.79
2022-12-19T05:39:46.447Z,0.76
2022-12-19T05:42:15.251Z,0.80
2022-12-19T05:44:43.969Z,0.77
2022-12-19T05:47:12.654Z,0.84
2022-12-19T05:49:41.352Z,0.91
2022-12-19T05:52:09.986Z,0.95
2022-12-19T05:54:40.115Z,0.95
2022-12-19T05:57:08.795Z,1.04
2022-12-19T05:59:37.480Z,1.08
2022-12-19T06:02:06.256Z,1.13
2022-12-19T06:04:35.738Z,1.11
2022-12-19T06:07:05.787Z,1.07
2022-12-19T06:09:34.530Z,1.21
2022-12-19T06:12:04.806Z,1.16
2022-12-19T06:14:33.608Z,1.23
2022-12-19T06:17:02.383Z,1.27
2022-12-19T06:19:31.536Z,1.16
2022-12-19T06:22:00.272Z,1.15
2022-12-19T06:24:34.814Z,1.01
2022-12-19T06:27:07.555Z,0.90
2022-12-19T06:29:36.373Z,0.90
2022-12-19T06:32:10.309Z,0.80
2022-12-19T06:37:32.268Z,0.62
2022-12-19T06:40:05.790Z,0.53
2022-12-19T06:42:35.433Z,0.61
2022-12-19T06:45:04.694Z,0.54
2022-12-19T06:47:33.913Z,0.54
2022-12-19T06:50:04.291Z,0.62
2022-12-19T06:52:33.080Z,0.74
2022-12-19T06:55:03.256Z,0.78
2022-12-19T06:57:32.488Z,0.90
2022-12-19T07:00:02.782Z,1.04
2022-12-19T07:02:33.970Z,1.13
2022-12-19T07:05:06.867Z,1.09
2022-12-19T07:07:35.790Z,1.11
2022-12-19T07:10:06.369Z,1.09
2022-12-19T07:12:35.674Z,1.11
2022-12-19T07:15:07.225Z,1.17
2022-12-19T07:17:40.432Z,1.21
2022-12-19T07:20:10.913Z,1.09
2022-12-19T07:22:40.661Z,1.16
2022-12-19T07:25:10.891Z,1.16
2022-12-19T07:27:41.892Z,1.23
2022-12-19T07:30:14.064Z,1.21
2022-12-19T07:32:42.833Z,1.11
2022-12-19T07:35:14.648Z,1.12
2022-12-19T07:37:43.484Z,1.03
2022-12-19T07:40:14.511Z,1.03
2022-12-19T07:42:43.427Z,1.14
2022-12-19T07:45:14.171Z,1.06
2022-12-19T07:47:42.892Z,1.18
2022-12-19T07:50:12.140Z,1.22
2022-12-19T07:52:40.976Z,1.23
2022-12-19T07:55:10.642Z,1.23
2022-12-19T07:57:39.464Z,1.30
2022-12-19T08:00:10.324Z,1.35
2022-12-19T08:02:43.430Z,1.43
2022-12-19T08:05:12.751Z,1.42
2022-12-19T08:07:42.156Z,1.40
2022-12-19T08:10:14.914Z,1.46
2022-12-19T08:12:43.900Z,1.50
2022-12-19T08:15:13.071Z,1.33
2022-12-19T08:17:44.672Z,1.34
2022-12-19T08:20:13.954Z,1.25
2022-12-19T08:22:42.691Z,1.14
2022-12-19T08:25:11.889Z,1.11
2022-12-19T08:27:43.068Z,1.11
2022-12-19T08:30:14.162Z,1.04
2022-12-19T08:32:45.272Z,0.98
2022-12-19T08:35:14.047Z,0.92
2022-12-19T08:37:42.817Z,0.95
2022-12-19T08:40:13.143Z,0.81
2022-12-19T08:42:42.514Z,0.90
2022-12-19T08:45:11.741Z,0.91
2022-12-19T08:47:40.516Z,1.04
2022-12-19T08:50:11.410Z,1.14
2022-12-19T08:52:40.175Z,1.13
2022-12-19T08:55:11.003Z,1.16
2022-12-19T08:57:39.758Z,1.16
2022-12-19T09:00:10.803Z,1.18
2022-12-19T09:02:40.666Z,1.19
2022-12-19T09:06:01.589Z,1.26
2022-12-19T09:08:01.113Z,1.25
2022-12-19T09:10:30.498Z,1.32
2022-12-19T09:12:59.380Z,1.30
2022-12-19T09:15:28.042Z,1.16
2022-12-19T09:17:56.801Z,1.08
2022-12-19T09:20:27.105Z,1.04
2022-12-19T09:22:56.067Z,0.86
2022-12-19T09:25:25.090Z,0.79
2022-12-19T09:28:26.318Z,0.74
2022-12-19T09:30:43.070Z,0.77
2022-12-19T09:33:12.720Z,0.74
2022-12-19T09:35:52.531Z,0.62
2022-12-19T09:38:25.479Z,0.70
2022-12-19T09:41:25.564Z,0.48
2022-12-19T09:44:10.830Z,0.60
2022-12-19T09:46:50.986Z,0.49
2022-12-19T09:49:24.502Z,0.59
2022-12-19T09:52:03.324Z,0.55
2022-12-19T09:54:40.003Z,0.57
2022-12-19T09:57:17.839Z,0.53
2022-12-19T09:59:52.492Z,0.48
2022-12-19T10:02:43.812Z,0.49
2022-12-19T10:05:55.650Z,0.44
2022-12-19T10:08:20.535Z,0.57
2022-12-19T10:12:43.157Z,0.48
2022-12-19T10:14:20.621Z,0.46
2022-12-19T10:17:23.620Z,0.45
2022-12-19T10:20:16.429Z,0.46
2022-12-19T10:23:03.561Z,0.60
2022-12-19T10:25:53.792Z,0.72
2022-12-19T10:28:45.372Z,0.71
2022-12-19T10:31:22.743Z,0.76
2022-12-19T10:34:01.560Z,0.82
2022-12-19T10:37:12.268Z,0.86
2022-12-19T10:39:32.953Z,0.88
2022-12-19T10:42:16.871Z,0.90
2022-12-19T10:44:48.620Z,0.99
2022-12-19T10:47:18.905Z,0.90
2022-12-19T10:49:49.388Z,0.97
2022-12-19T10:52:55.347Z,1.03
2022-12-19T10:55:35.618Z,1.09
2022-12-19T10:58:23.519Z,1.07
2022-12-19T11:01:15.897Z,1.18
2022-12-19T11:03:47.962Z,1.04
2022-12-19T11:06:53.286Z,1.13
2022-12-19T11:09:30.804Z,1.22
2022-12-19T11:16:34.862Z,1.17
2022-12-19T11:22:53.202Z,1.15
2022-12-19T11:29:25.862Z,1.22
2022-12-19T11:29:26.084Z,1.12
2022-12-19T11:29:34.916Z,1.25
2022-12-19T11:29:47.275Z,1.34
2022-12-19T11:32:43.578Z,1.30
2022-12-19T11:35:21.681Z,1.18
2022-12-19T11:37:58.853Z,1.23
2022-12-19T11:40:38.632Z,1.09
2022-12-19T11:46:22.277Z,1.08
2022-12-19T11:48:57.994Z,1.04
2022-12-19T11:51:36.190Z,1.03
2022-12-19T11:54:16.493Z,1.05
2022-12-19T11:56:46.168Z,0.94
2022-12-19T11:59:21.755Z,1.03
2022-12-19T12:02:33.386Z,0.94
2022-12-19T12:05:47.145Z,0.79
2022-12-19T12:12:17.359Z,0.79
2022-12-19T12:18:20.316Z,0.79
2022-12-19T12:26:19.560Z,0.75
2022-12-19T12:31:01.215Z,0.71
2022-12-19T12:31:08.169Z,0.74
2022-12-19T12:31:39.144Z,0.74
2022-12-19T12:31:47.319Z,0.71
2022-12-19T12:31:58.825Z,0.72
2022-12-19T12:36:54.505Z,0.53
2022-12-19T12:39:58.211Z,0.47
2022-12-19T12:42:44.803Z,0.37
2022-12-19T12:45:23.184Z,0.34
2022-12-19T12:47:54.589Z,0.23
2022-12-19T12:50:27.074Z,0.29
2022-12-19T12:53:00.051Z,0.31
2022-12-19T12:55:33.841Z,0.24
2022-12-19T12:58:02.877Z,0.22
2022-12-19T13:00:36.692Z,0.11
2022-12-19T13:03:17.245Z,0.06
2022-12-19T13:06:04.705Z,0.10
2022-12-19T13:08:39.392Z,0.12
2022-12-19T13:11:35.208Z,0.03
2022-12-19T13:14:05.522Z,-0.08
2022-12-19T13:16:56.333Z,-0.03
2022-12-19T13:19:35.219Z,-0.09
2022-12-19T13:22:21.217Z,0.13
2022-12-19T13:24:52.553Z,0.03
2022-12-19T13:27:42.471Z,0.13
2022-12-19T13:30:21.553Z,0.15
2022-12-19T13:33:11.403Z,0.11
2022-12-19T13:39:47.863Z,-0.01
2022-12-19T13:39:51.734Z,0.04
2022-12-19T13:42:02.953Z,-0.05
2022-12-19T13:44:41.092Z,-0.12
2022-12-19T13:47:17.661Z,-0.13
2022-12-19T13:49:49.897Z,-0.25
2022-12-19T13:52:20.157Z,-0.19
2022-12-19T13:54:51.764Z,-0.21
2022-12-19T13:57:33.253Z,-0.25
2022-12-19T14:00:10.877Z,-0.36
2022-12-19T14:02:49.767Z,-0.37
2022-12-19T14:06:15.189Z,-0.36
2022-12-19T14:08:26.258Z,-0.46
2022-12-19T14:11:32.606Z,-0.38
2022-12-19T14:14:15.189Z,-0.46
2022-12-19T14:16:49.007Z,-0.50
2022-12-19T14:19:23.542Z,-0.48
2022-12-19T14:22:04.060Z,-0.47
2022-12-19T14:24:43.051Z,-0.41
2022-12-19T14:28:20.907Z,-0.37
2022-12-19T14:30:29.271Z,-0.37
2022-12-19T14:33:47.266Z,-0.31
2022-12-19T14:36:07.636Z,-0.47
2022-12-19T14:39:27.195Z,-0.47
2022-12-19T14:42:19.914Z,-0.54
2022-12-19T14:51:51.418Z,-0.58
2022-12-19T14:54:02.606Z,-0.59
2022-12-19T14:54:37.841Z,-0.66
2022-12-19T14:57:50.666Z,-0.64
2022-12-19T15:01:08.244Z,-0.66
2022-12-19T15:03:24.611Z,-0.57
2022-12-19T15:06:03.818Z,-0.60
2022-12-19T15:09:17.852Z,-0.69
2022-12-19T15:14:48.216Z,-0.61
2022-12-19T15:15:22.656Z,-0.64
2022-12-19T15:17:54.273Z,-0.61
2022-12-19T15:20:24.309Z,-0.52
2022-12-19T15:22:56.550Z,-0.54
2022-12-19T15:26:02.225Z,-0.57
2022-12-19T15:28:18.488Z,-0.46
2022-12-19T15:30:57.691Z,-0.35
2022-12-19T15:33:26.419Z,-0.38
2022-12-19T15:35:56.443Z,-0.33
2022-12-19T15:38:25.312Z,-0.32
2022-12-19T15:40:53.966Z,-0.29
2022-12-19T15:44:01.982Z,-0.27
2022-12-19T15:46:15.605Z,-0.19
2022-12-19T15:48:50.136Z,-0.12
2022-12-19T15:51:18.888Z,-0.15
2022-12-19T15:53:47.985Z,-0.19
2022-12-19T15:56:28.784Z,-0.05
2022-12-19T15:59:01.285Z,-0.01
2022-12-19T16:01:34.457Z,0.01
2022-12-19T16:04:04.794Z,-0.03
2022-12-19T16:06:33.643Z,-0.04
2022-12-19T16:09:02.582Z,0.07
2022-12-19T16:11:31.357Z,0.15
2022-12-19T16:14:00.487Z,0.02
2022-12-19T16:16:31.468Z,0.13
2022-12-19T16:19:00.153Z,0.11
2022-12-19T16:21:34.014Z,0.10
2022-12-19T16:24:03.149Z,0.15
2022-12-19T16:26:36.342Z,0.11
2022-12-19T16:29:06.627Z,0.11
2022-12-19T16:31:36.786Z,0.22
2022-12-19T16:34:17.384Z,0.15
2022-12-19T16:36:46.221Z,0.25
2022-12-19T16:39:15.698Z,0.28
2022-12-19T16:41:47.220Z,0.33
2022-12-19T16:44:20.478Z,0.27
2022-12-19T16:46:52.462Z,0.40
2022-12-19T16:49:23.935Z,0.36
2022-12-19T16:51:53.426Z,0.39
2022-12-19T16:54:22.163Z,0.40
2022-12-19T16:56:53.911Z,0.45
2022-12-19T16:59:28.450Z,0.44
2022-12-19T17:02:00.329Z,0.47
2022-12-19T17:04:31.169Z,0.44
2022-12-19T17:07:00.808Z,0.44
2022-12-19T17:09:29.515Z,0.44
2022-12-19T17:12:02.149Z,0.52
2022-12-19T17:14:33.555Z,0.53
2022-12-19T17:17:03.968Z,0.50
2022-12-19T17:19:39.119Z,0.58
2022-12-19T17:22:13.254Z,0.49
2022-12-19T17:24:42.493Z,0.48
2022-12-19T17:27:11.233Z,0.51
2022-12-19T17:29:40.478Z,0.57
2022-12-19T17:32:23.286Z,0.50
2022-12-19T17:34:54.086Z,0.53
2022-12-19T17:37:23.193Z,0.52
2022-12-19T17:39:51.948Z,0.50
2022-12-19T17:42:25.075Z,0.46
2022-12-19T17:44:54.014Z,0.53
2022-12-19T17:47:24.988Z,0.60
2022-12-19T17:49:54.062Z,0.57
2022-12-19T17:52:22.816Z,0.64
2022-12-19T17:54:51.471Z,0.67
2022-12-19T17:57:20.615Z,0.81
2022-12-19T17:59:50.290Z,0.79
2022-12-19T18:02:23.912Z,0.86
2022-12-19T18:04:54.803Z,0.92
2022-12-19T18:07:23.505Z,0.92
2022-12-19T18:09:52.288Z,0.92
2022-12-19T18:12:21.176Z,1.03
2022-12-19T18:14:49.873Z,0.99
2022-12-19T18:17:26.421Z,1.07
2022-12-19T18:19:56.682Z,1.14
2022-12-19T18:22:25.330Z,1.10
2022-12-19T18:24:53.977Z,1.15
2022-12-19T18:27:22.596Z,1.20
2022-12-19T18:29:51.292Z,1.19
2022-12-19T18:32:22.075Z,1.21
2022-12-19T18:34:51.075Z,1.20
2022-12-19T18:37:22.638Z,1.29
2022-12-19T18:39:55.600Z,1.25
2022-12-19T18:42:24.435Z,1.25
2022-12-19T18:44:53.134Z,1.31
2022-12-19T18:47:25.523Z,1.40
2022-12-19T18:49:54.435Z,1.40
2022-12-19T18:52:24.583Z,1.30
2022-12-19T18:54:53.448Z,1.42
2022-12-19T18:57:22.117Z,1.48
2022-12-19T18:59:51.258Z,1.36
2022-12-19T19:02:28.015Z,1.31
2022-12-19T19:04:56.988Z,1.39
2022-12-19T19:07:27.279Z,1.28
2022-12-19T19:09:55.855Z,1.37
2022-12-19T19:12:48.625Z,1.28
2022-12-19T19:15:19.219Z,1.33
2022-12-19T19:17:51.943Z,1.39
2022-12-19T19:20:21.347Z,1.42
2022-12-19T19:22:52.331Z,1.36
2022-12-19T19:25:21.794Z,1.46
2022-12-19T19:27:50.969Z,1.48
2022-12-19T19:30:20.597Z,1.57
2022-12-19T19:32:55.026Z,1.51
2022-12-19T19:35:27.257Z,1.56
2022-12-19T19:38:02.713Z,1.66
2022-12-19T19:40:31.785Z,1.66
2022-12-19T19:43:01.648Z,1.65
2022-12-19T19:45:43.159Z,1.64
2022-12-19T19:48:13.694Z,1.76
2022-12-19T19:50:43.126Z,1.71
2022-12-19T19:53:13.267Z,1.68
2022-12-19T19:55:43.424Z,1.75
2022-12-19T19:58:12.311Z,1.85
2022-12-19T20:00:43.250Z,1.90
2022-12-19T20:03:16.786Z,1.89
2022-12-19T20:05:49.446Z,1.81
2022-12-19T20:08:19.646Z,1.85
2022-12-19T20:10:57.072Z,1.93
2022-12-19T20:13:26.283Z,1.97
2022-12-19T20:15:55.423Z,1.93
2022-12-19T20:18:24.347Z,1.95
2022-12-19T20:20:53.119Z,1.89
2022-12-19T20:23:23.309Z,1.90
2022-12-19T20:25:52.284Z,1.93
2022-12-19T20:28:21.075Z,1.89
2022-12-19T20:30:51.705Z,1.83
2022-12-19T20:33:20.431Z,1.86
2022-12-19T20:35:49.338Z,1.90
2022-12-19T20:38:18.523Z,1.88
2022-12-19T20:40:48.816Z,1.93
2022-12-19T20:43:17.503Z,1.89
2022-12-19T20:45:46.207Z,1.93
2022-12-19T20:48:23.681Z,1.97
2022-12-19T20:50:57.706Z,1.94
2022-12-19T20:53:27.206Z,2.03
2022-12-19T20:56:01.134Z,1.92
2022-12-19T20:58:32.056Z,2.04
2022-12-19T21:01:06.965Z,2.06
2022-12-19T21:03:37.294Z,1.97
2022-12-19T21:06:07.614Z,1.99
2022-12-19T21:08:37.744Z,1.95
2022-12-19T21:11:10.607Z,1.97
2022-12-19T21:13:41.163Z,2.01
2022-12-19T21:16:13.698Z,1.91
2022-12-19T21:18:44.955Z,1.97
2022-12-19T21:21:17.828Z,2.02
2022-12-19T21:23:46.886Z,2.02
2022-12-19T21:26:17.523Z,1.99
2022-12-19T21:28:46.814Z,2.06
2022-12-19T21:31:19.533Z,1.99
2022-12-19T21:33:49.543Z,2.01
2022-12-19T21:36:22.448Z,1.99
2022-12-19T21:38:54.521Z,1.97
2022-12-19T21:41:25.452Z,2.04
2022-12-19T21:43:56.248Z,2.04
2022-12-19T21:46:28.788Z,2.10
2022-12-19T21:49:01.344Z,2.06
2022-12-19T21:51:33.054Z,2.02
2022-12-19T21:54:06.126Z,1.97
2022-12-19T21:56:39.088Z,2.03
2022-12-19T21:59:12.605Z,2.04
2022-12-19T22:01:42.445Z,1.93
2022-12-19T22:04:17.364Z,1.95
2022-12-19T22:06:50.600Z,1.86
2022-12-19T22:09:23.916Z,1.92
2022-12-19T22:14:54.639Z,1.97
2022-12-19T22:17:26.189Z,1.94
2022-12-19T22:19:55.545Z,1.99
2022-12-19T22:22:25.925Z,2.03
2022-12-19T22:24:54.652Z,2.03
2022-12-19T22:27:25.153Z,1.91
2022-12-19T22:29:53.879Z,1.89
2022-12-19T22:32:22.573Z,1.86
2022-12-19T22:34:51.279Z,1.78
2022-12-19T22:37:20.066Z,1.78
2022-12-19T22:39:48.823Z,1.82
2022-12-19T22:42:17.552Z,1.74
2022-12-19T22:44:47.596Z,1.83
2022-12-19T22:47:16.318Z,1.81
2022-12-19T22:49:44.955Z,1.82
2022-12-19T22:52:13.729Z,1.78
2022-12-19T22:54:42.653Z,1.79
2022-12-19T22:57:12.028Z,1.85
2022-12-19T22:59:41.237Z,1.79
2022-12-19T23:02:11.583Z,1.73
2022-12-19T23:04:40.658Z,1.74
2022-12-19T23:07:09.419Z,1.74
2022-12-19T23:09:38.227Z,1.64
2022-12-19T23:12:07.645Z,1.70
2022-12-19T23:14:36.448Z,1.66
2022-12-19T23:17:05.189Z,1.64
2022-12-19T23:19:35.361Z,1.60
2022-12-19T23:22:04.137Z,1.56
2022-12-19T23:24:32.867Z,1.69
2022-12-19T23:27:01.808Z,1.52
2022-12-19T23:29:30.472Z,1.50
2022-12-19T23:31:59.247Z,1.47
2022-12-19T23:34:27.977Z,1.47
2022-12-19T23:37:10.681Z,1.52
2022-12-19T23:39:40.171Z,1.47
2022-12-19T23:42:08.982Z,1.34
2022-12-19T23:44:37.962Z,1.31
2022-12-19T23:47:06.868Z,1.30
2022-12-19T23:49:35.550Z,1.31
2022-12-19T23:52:06.302Z,1.36
2022-12-19T23:54:35.242Z,1.34
2022-12-19T23:57:03.930Z,1.26
2022-12-19T23:59:32.685Z,1.18
